Time;durP1;ratioP1;P1;durP2;ratioP2;P2;SDS_P1;SDS_P2;PMS_P1;PMS_P2;Temp;Humidity;BMP_temperature;BMP_pressure;BME280_temperature;BME280_humidity;BME280_pressure;Samples;Min_cycle;Max_cycle;Signal;HPM_P1;HPM_P2
2022/08/10 00:01:42;;;;;;;16.20;4.53;;;21.70;80.90;;;;;;5106601;28;20027;-62
2022/08/10 00:04:07;;;;;;;10.50;4.05;;;21.70;80.90;;;;;;5094970;28;20035;-62
2022/08/10 00:06:33;;;;;;;6.20;3.85;;;21.60;81.00;;;;;;5096271;28;20031;-62
2022/08/10 00:08:59;;;;;;;8.18;3.88;;;21.60;80.90;;;;;;5094452;28;20032;-62
2022/08/10 00:11:25;;;;;;;11.50;5.80;;;21.60;80.80;;;;;;5095940;28;20081;-62
2022/08/10 00:13:50;;;;;;;9.20;4.75;;;21.50;81.20;;;;;;5094301;28;20571;-62
2022/08/10 00:16:17;;;;;;;7.70;4.90;;;21.60;81.70;;;;;;5107356;28;20106;-62
2022/08/10 00:18:42;;;;;;;9.52;5.13;;;21.60;82.00;;;;;;5095770;28;20083;-62
2022/08/10 00:21:09;;;;;;;9.55;4.80;;;21.60;82.20;;;;;;5107709;28;20048;-62
2022/08/10 00:23:36;;;;;;;9.10;4.32;;;21.50;82.10;;;;;;5093849;28;20483;-62
2022/08/10 00:26:03;;;;;;;7.18;4.10;;;21.50;81.90;;;;;;5094469;28;20443;-62
2022/08/10 00:28:29;;;;;;;10.75;4.28;;;21.50;81.50;;;;;;5102026;28;20043;-62
2022/08/10 00:30:55;;;;;;;5.38;3.72;;;21.50;81.40;;;;;;5098670;28;20032;-62
2022/08/10 00:33:21;;;;;;;6.93;4.20;;;21.40;81.00;;;;;;5102959;28;20062;-62
2022/08/10 00:35:47;;;;;;;6.85;4.75;;;21.40;81.00;;;;;;5098208;27;20056;-62
2022/08/10 00:38:13;;;;;;;10.63;5.68;;;21.40;81.50;;;;;;5102786;28;20085;-62
2022/08/10 00:40:38;;;;;;;9.18;5.57;;;21.40;82.10;;;;;;5099241;28;20028;-62
2022/08/10 00:43:07;;;;;;;9.95;5.78;;;21.40;82.70;;;;;;5102639;28;20027;-62
2022/08/10 00:45:34;;;;;;;9.65;6.20;;;21.30;83.20;;;;;;5101653;28;20475;-62
2022/08/10 00:48:00;;;;;;;12.65;6.05;;;21.30;83.70;;;;;;5103628;28;20101;-62
2022/08/10 00:50:26;;;;;;;8.15;6.07;;;21.30;84.00;;;;;;5096352;28;20028;-62
2022/08/10 00:52:52;;;;;;;10.20;5.82;;;21.20;84.20;;;;;;5105186;28;20024;-62
2022/08/10 00:55:18;;;;;;;9.35;6.57;;;21.30;84.50;;;;;;5099129;28;20371;-62
2022/08/10 00:57:45;;;;;;;14.30;6.90;;;21.20;84.60;;;;;;5091211;28;20031;-62
2022/08/10 01:00:11;;;;;;;10.20;5.55;;;21.20;84.50;;;;;;5095560;28;20036;-62
2022/08/10 01:02:39;;;;;;;7.75;5.55;;;21.20;84.20;;;;;;5107118;28;20085;-62
2022/08/10 01:05:10;;;;;;;10.02;5.43;;;21.20;83.80;;;;;;5102413;28;20471;-62
2022/08/10 01:07:48;;;;;;;7.93;5.03;;;21.20;83.50;;;;;;5106793;28;20024;-62
2022/08/10 01:10:41;;;;;;;8.25;5.43;;;21.20;83.20;;;;;;5104940;28;20028;-62
2022/08/10 01:13:14;;;;;;;11.20;5.63;;;21.20;83.30;;;;;;5096970;28;20051;-62
2022/08/10 01:15:53;;;;;;;10.63;5.82;;;21.10;83.40;;;;;;5101117;28;20043;-62
2022/08/10 01:18:41;;;;;;;8.30;5.28;;;21.10;84.40;;;;;;5103907;28;20035;-62
2022/08/10 01:21:36;;;;;;;10.40;5.90;;;21.10;83.90;;;;;;5100305;28;20026;-62
2022/08/10 01:24:22;;;;;;;8.73;6.05;;;21.00;84.00;;;;;;5105037;28;20035;-62
2022/08/10 01:27:20;;;;;;;7.93;4.93;;;21.00;84.20;;;;;;5092661;28;20036;-62
2022/08/10 01:30:05;;;;;;;9.48;6.00;;;21.00;84.40;;;;;;5106317;28;20032;-62
2022/08/10 01:32:46;;;;;;;9.82;5.00;;;20.90;84.50;;;;;;5106832;28;20055;-62
2022/08/10 01:35:29;;;;;;;14.55;5.03;;;20.90;84.40;;;;;;5113285;28;20153;-62
2022/08/10 01:38:02;;;;;;;7.70;5.05;;;20.90;84.50;;;;;;5093453;28;20436;-62
2022/08/10 01:40:31;;;;;;;6.68;5.05;;;20.90;84.70;;;;;;5104830;28;20558;-62
2022/08/10 01:43:01;;;;;;;9.88;4.30;;;20.80;84.20;;;;;;5100380;28;20028;-62
2022/08/10 01:45:28;;;;;;;8.85;4.40;;;20.80;83.60;;;;;;5097696;28;20066;-62
2022/08/10 01:50:55;;;;;;;7.97;4.38;;;20.80;83.10;;;;;;5092967;28;20032;-62
2022/08/10 01:53:32;;;;;;;7.22;5.00;;;20.80;83.20;;;;;;5105465;28;20077;-62
2022/08/10 01:56:00;;;;;;;7.80;4.80;;;20.80;83.80;;;;;;5092874;28;20036;-62
2022/08/10 01:58:28;;;;;;;12.43;5.32;;;20.70;84.10;;;;;;5104489;28;20035;-62
2022/08/10 02:00:56;;;;;;;6.68;4.82;;;20.80;84.60;;;;;;5101116;28;20036;-62
2022/08/10 02:03:24;;;;;;;7.57;4.40;;;20.70;84.70;;;;;;5096669;28;20035;-62
2022/08/10 02:05:53;;;;;;;10.93;4.95;;;20.70;84.60;;;;;;5093004;28;20043;-62
2022/08/10 02:08:21;;;;;;;8.65;5.10;;;20.70;85.00;;;;;;5094727;28;20402;-62
2022/08/10 02:10:49;;;;;;;9.43;6.07;;;20.60;85.30;;;;;;5112651;28;20042;-62
2022/08/10 02:13:19;;;;;;;12.32;5.72;;;20.70;85.80;;;;;;5098000;28;20035;-62
2022/08/10 02:15:48;;;;;;;7.63;5.65;;;20.60;86.20;;;;;;5100315;28;20077;-62
2022/08/10 02:18:15;;;;;;;8.25;6.05;;;20.60;86.50;;;;;;5105636;28;20062;-62
2022/08/10 02:20:47;;;;;;;10.32;5.43;;;20.60;86.80;;;;;;5094293;28;20035;-62
2022/08/10 02:23:22;;;;;;;11.27;7.10;;;20.60;87.10;;;;;;5098146;28;20046;-62
2022/08/10 02:25:50;;;;;;;11.07;6.05;;;20.60;87.40;;;;;;5112439;28;20486;-61
2022/08/10 02:28:20;;;;;;;11.77;6.18;;;20.60;87.60;;;;;;5105065;28;20093;-62
2022/08/10 02:30:48;;;;;;;9.60;6.43;;;20.60;88.00;;;;;;5092521;28;20042;-62
2022/08/10 02:33:17;;;;;;;11.45;6.53;;;20.50;88.20;;;;;;5092932;28;20044;-62
2022/08/10 02:35:44;;;;;;;15.75;6.55;;;20.50;88.40;;;;;;5091782;28;20038;-62
2022/08/10 02:38:12;;;;;;;13.05;6.10;;;20.60;88.60;;;;;;5099631;28;20031;-62
2022/08/10 02:40:47;;;;;;;9.63;6.10;;;20.50;88.60;;;;;;5097753;28;20036;-62
2022/08/10 02:43:29;;;;;;;9.48;5.95;;;20.50;88.60;;;;;;5092002;28;20375;-62
2022/08/10 02:46:06;;;;;;;11.40;6.10;;;20.50;88.40;;;;;;5092574;28;20028;-62
2022/08/10 02:49:00;;;;;;;8.77;4.93;;;20.50;88.10;;;;;;5092250;28;20032;-62
2022/08/10 02:51:43;;;;;;;10.65;5.35;;;20.40;87.40;;;;;;5102086;28;20039;-62
2022/08/10 02:54:23;;;;;;;7.05;5.28;;;20.40;86.80;;;;;;5092203;28;20521;-62
2022/08/10 02:57:09;;;;;;;8.15;4.93;;;20.40;86.60;;;;;;5094883;28;20040;-62
2022/08/10 02:59:43;;;;;;;7.05;4.60;;;20.30;86.60;;;;;;5105335;28;20050;-62
2022/08/10 03:02:26;;;;;;;7.25;4.70;;;20.30;86.70;;;;;;5105589;28;20031;-62
2022/08/10 03:04:55;;;;;;;14.50;5.03;;;20.30;86.80;;;;;;5091920;28;20040;-62
2022/08/10 03:07:24;;;;;;;9.90;4.80;;;20.30;86.80;;;;;;5092322;28;20496;-62
2022/08/10 03:09:52;;;;;;;10.80;4.72;;;20.20;86.70;;;;;;5092336;28;20028;-62
2022/08/10 03:12:19;;;;;;;7.18;4.88;;;20.20;86.80;;;;;;5091107;28;20039;-61
2022/08/10 03:14:46;;;;;;;6.95;4.07;;;20.20;86.90;;;;;;5103576;28;20039;-62
2022/08/10 03:17:13;;;;;;;10.02;4.75;;;20.20;87.00;;;;;;5110039;28;20020;-61
2022/08/10 03:19:40;;;;;;;12.25;4.82;;;20.10;87.00;;;;;;5099587;28;20036;-62
2022/08/10 03:22:10;;;;;;;5.90;4.40;;;20.10;87.20;;;;;;5104781;28;20024;-62
2022/08/10 03:24:36;;;;;;;7.25;4.68;;;20.10;87.40;;;;;;5104347;28;20111;-62
2022/08/10 03:27:03;;;;;;;9.20;5.03;;;20.10;87.40;;;;;;5099975;28;20097;-62
2022/08/10 03:29:31;;;;;;;10.13;4.53;;;20.00;87.40;;;;;;5100998;28;20122;-62
2022/08/10 03:31:58;;;;;;;10.77;4.70;;;20.10;87.50;;;;;;5114008;28;20099;-62
2022/08/10 03:34:25;;;;;;;7.47;5.00;;;20.00;87.50;;;;;;5101150;28;20038;-62
2022/08/10 03:36:51;;;;;;;8.85;5.20;;;20.00;87.60;;;;;;5112938;28;20076;-62
2022/08/10 03:39:16;;;;;;;10.18;4.65;;;20.00;87.80;;;;;;5112426;28;20421;-61
2022/08/10 03:41:54;;;;;;;8.90;5.38;;;19.90;87.90;;;;;;5114070;28;20020;-62
2022/08/10 03:44:23;;;;;;;11.23;5.57;;;19.90;88.10;;;;;;5110679;28;20355;-62
2022/08/10 03:46:51;;;;;;;14.88;5.32;;;19.90;88.10;;;;;;5108349;28;20036;-62
2022/08/10 03:49:17;;;;;;;7.93;5.18;;;19.90;88.20;;;;;;5110109;28;20475;-62
2022/08/10 03:51:47;;;;;;;11.73;5.18;;;19.90;88.20;;;;;;5112655;28;20424;-62
2022/08/10 03:54:14;;;;;;;8.65;4.60;;;19.90;88.30;;;;;;5107474;28;20118;-62
2022/08/10 03:56:40;;;;;;;10.57;4.55;;;19.90;88.30;;;;;;5112994;28;20024;-62
2022/08/10 03:59:09;;;;;;;15.18;4.40;;;19.90;88.30;;;;;;5112918;28;20040;-62
2022/08/10 04:01:35;;;;;;;5.80;4.10;;;19.90;88.40;;;;;;5108090;28;20027;-62
2022/08/10 04:04:01;;;;;;;12.25;4.70;;;19.80;88.60;;;;;;5112127;28;20498;-62
2022/08/10 04:06:27;;;;;;;10.13;5.15;;;19.80;88.60;;;;;;5109404;28;20027;-63
2022/08/10 04:08:53;;;;;;;6.32;4.47;;;19.80;89.00;;;;;;5110435;28;20090;-62
2022/08/10 04:11:19;;;;;;;7.68;4.85;;;19.80;89.20;;;;;;5111235;28;20036;-62
2022/08/10 04:13:44;;;;;;;10.15;4.75;;;19.70;89.40;;;;;;5103738;28;20024;-62
2022/08/10 04:16:10;;;;;;;8.68;4.70;;;19.70;89.70;;;;;;5095415;28;20498;-62
2022/08/10 04:18:36;;;;;;;9.77;4.60;;;19.70;90.00;;;;;;5113624;28;20081;-62
2022/08/10 04:21:14;;;;;;;10.05;4.35;;;19.70;90.10;;;;;;5108752;28;20467;-62
2022/08/10 04:23:48;;;;;;;13.40;4.18;;;19.70;90.10;;;;;;5102239;28;20027;-62
2022/08/10 04:26:15;;;;;;;8.18;4.55;;;19.70;90.20;;;;;;5111196;28;20046;-62
2022/08/10 04:28:41;;;;;;;6.93;4.78;;;19.70;90.30;;;;;;5102275;28;20039;-62
2022/08/10 04:31:11;;;;;;;9.23;4.85;;;19.70;90.40;;;;;;5097391;28;20028;-62
2022/08/10 04:33:40;;;;;;;11.20;4.60;;;19.60;90.60;;;;;;5114542;27;20035;-62
2022/08/10 04:36:09;;;;;;;8.23;5.35;;;19.60;90.70;;;;;;5099497;28;20364;-62
2022/08/10 04:38:35;;;;;;;10.15;5.40;;;19.60;90.70;;;;;;5099980;27;20039;-62
2022/08/10 04:41:01;;;;;;;8.93;5.30;;;19.60;90.70;;;;;;5110760;28;20030;-62
2022/08/10 04:43:27;;;;;;;11.35;5.72;;;19.60;90.70;;;;;;5109972;28;20023;-62
2022/08/10 04:45:53;;;;;;;8.25;4.93;;;19.60;90.80;;;;;;5097181;28;20465;-62
2022/08/10 04:48:21;;;;;;;12.07;5.68;;;19.60;90.90;;;;;;5104256;28;20026;-62
2022/08/10 04:50:47;;;;;;;9.27;5.75;;;19.60;91.00;;;;;;5103260;28;20032;-62
2022/08/10 04:53:12;;;;;;;9.75;6.03;;;19.50;91.10;;;;;;5103679;28;20072;-70
2022/08/10 04:55:38;;;;;;;9.98;5.55;;;19.60;91.20;;;;;;5106485;28;20024;-62
2022/08/10 04:58:04;;;;;;;11.75;5.65;;;19.50;91.20;;;;;;5100152;28;20024;-62
2022/08/10 05:00:29;;;;;;;10.82;5.95;;;19.50;91.30;;;;;;5107075;28;20036;-62
2022/08/10 05:02:55;;;;;;;18.38;6.72;;;19.50;91.40;;;;;;5092439;28;20084;-62
2022/08/10 05:05:24;;;;;;;9.82;5.50;;;19.50;91.60;;;;;;5100589;28;20031;-62
2022/08/10 05:07:49;;;;;;;13.80;6.22;;;19.50;91.70;;;;;;5112307;28;20479;-62
2022/08/10 05:10:15;;;;;;;9.52;5.50;;;19.50;91.80;;;;;;5105411;28;20165;-62
2022/08/10 05:12:41;;;;;;;11.70;5.72;;;19.50;91.90;;;;;;5106989;28;20031;-62
2022/08/10 05:15:11;;;;;;;10.13;5.43;;;19.50;92.10;;;;;;5113719;28;20019;-62
2022/08/10 05:17:38;;;;;;;7.80;5.63;;;19.60;92.40;;;;;;5110972;28;20114;-62
2022/08/10 05:20:06;;;;;;;11.13;5.88;;;19.50;92.50;;;;;;5100304;28;20039;-62
2022/08/10 05:22:34;;;;;;;11.55;6.03;;;19.50;92.80;;;;;;5098337;28;20031;-62
2022/08/10 05:25:00;;;;;;;9.73;5.90;;;19.60;93.00;;;;;;5100801;28;20401;-62
2022/08/10 05:27:26;;;;;;;16.33;6.15;;;19.50;93.10;;;;;;5097237;28;20115;-62
2022/08/10 05:29:51;;;;;;;14.27;6.10;;;19.60;93.30;;;;;;5093252;28;20036;-62
2022/08/10 05:32:17;;;;;;;8.93;5.10;;;19.60;93.50;;;;;;5093247;28;20051;-62
2022/08/10 05:34:43;;;;;;;15.70;6.05;;;19.60;93.50;;;;;;5105084;28;20040;-62
2022/08/10 05:37:10;;;;;;;10.02;4.93;;;19.60;93.70;;;;;;5107498;28;20027;-62
2022/08/10 05:39:38;;;;;;;20.10;5.55;;;19.60;93.90;;;;;;5112424;28;20478;-62
2022/08/10 05:42:05;;;;;;;14.05;5.35;;;19.70;94.10;;;;;;5099152;28;20031;-62
2022/08/10 05:44:31;;;;;;;9.60;5.20;;;19.70;94.40;;;;;;5113128;28;20031;-62
2022/08/10 05:46:57;;;;;;;11.65;5.22;;;19.70;94.20;;;;;;5096540;28;20030;-62
2022/08/10 05:49:23;;;;;;;12.80;5.20;;;19.70;94.40;;;;;;5102802;28;20036;-62
2022/08/10 05:51:49;;;;;;;10.27;4.93;;;19.70;94.50;;;;;;5095880;28;20071;-62
2022/08/10 05:54:15;;;;;;;9.35;5.10;;;19.80;94.60;;;;;;5093364;28;20418;-62
2022/08/10 05:56:43;;;;;;;9.63;4.70;;;19.80;94.60;;;;;;5108496;28;20020;-62
2022/08/10 05:59:11;;;;;;;7.53;4.93;;;19.80;94.70;;;;;;5101919;28;20051;-62
2022/08/10 06:01:42;;;;;;;8.27;5.00;;;19.80;94.80;;;;;;5095149;28;20040;-62
2022/08/10 06:04:12;;;;;;;12.80;5.00;;;19.80;94.90;;;;;;5112344;28;20035;-62
2022/08/10 06:06:39;;;;;;;14.70;4.75;;;19.90;94.90;;;;;;5111596;28;20023;-62
2022/08/10 06:09:07;;;;;;;12.63;5.20;;;19.90;94.90;;;;;;5101801;28;20028;-62
2022/08/10 06:11:36;;;;;;;11.57;4.68;;;19.90;95.00;;;;;;5109610;28;20364;-62
2022/08/10 06:16:56;;;;;;;10.13;4.45;;;19.90;95.10;;;;;;5092433;28;20043;-62
2022/08/10 06:19:22;;;;;;;10.60;5.25;;;20.00;95.10;;;;;;5092873;28;20043;-62
2022/08/10 06:21:48;;;;;;;8.68;5.45;;;20.00;94.90;;;;;;5092939;28;20395;-62
2022/08/10 06:24:16;;;;;;;7.90;3.05;;;20.00;95.00;;;;;;5108279;28;20103;-62
2022/08/10 06:26:43;;;;;;;7.78;3.28;;;20.10;95.10;;;;;;5111030;28;20027;-62
2022/08/10 06:29:11;;;;;;;5.88;2.35;;;20.10;93.80;;;;;;5105001;28;20108;-63
2022/08/10 06:31:43;;;;;;;9.75;2.70;;;20.10;92.90;;;;;;5109718;28;20096;-63
2022/08/10 06:34:17;;;;;;;5.00;2.33;;;20.10;92.30;;;;;;5105707;28;20153;-62
2022/08/10 06:36:44;;;;;;;8.43;3.17;;;20.20;91.60;;;;;;5110900;28;20027;-62
2022/08/10 06:39:10;;;;;;;4.30;2.55;;;20.20;91.60;;;;;;5107984;28;20157;-62
2022/08/10 06:41:42;;;;;;;5.78;3.03;;;20.20;91.40;;;;;;5110370;28;20019;-62
2022/08/10 06:44:13;;;;;;;4.28;3.38;;;20.20;91.60;;;;;;5108609;28;20486;-62
2022/08/10 06:46:44;;;;;;;6.72;3.28;;;20.30;91.40;;;;;;5099163;28;20115;-62
2022/08/10 06:49:12;;;;;;;4.70;2.22;;;20.30;91.20;;;;;;5095462;28;20516;-62
2022/08/10 06:51:39;;;;;;;5.53;2.60;;;20.40;91.10;;;;;;5101249;28;20045;-63
2022/08/10 06:54:07;;;;;;;5.95;3.22;;;20.40;91.10;;;;;;5104972;28;20032;-62
2022/08/10 06:56:42;;;;;;;5.70;2.67;;;20.40;91.00;;;;;;5105361;28;20031;-62
2022/08/10 06:59:33;;;;;;;7.47;3.10;;;20.50;91.00;;;;;;5104061;28;20447;-62
2022/08/10 07:02:09;;;;;;;4.90;2.63;;;20.50;90.90;;;;;;5105941;28;20039;-63
2022/08/10 07:04:53;;;;;;;6.38;2.63;;;20.50;90.70;;;;;;5108802;27;20054;-61
2022/08/10 07:07:22;;;;;;;4.90;2.50;;;20.60;90.70;;;;;;5111981;28;20089;-62
2022/08/10 07:09:50;;;;;;;10.40;2.30;;;20.60;90.70;;;;;;5107055;28;20032;-63
2022/08/10 07:12:19;;;;;;;8.13;2.72;;;20.60;90.90;;;;;;5109860;28;20023;-63
2022/08/10 07:14:50;;;;;;;5.53;2.22;;;20.70;90.80;;;;;;5111518;28;20031;-63
2022/08/10 07:17:19;;;;;;;5.22;2.15;;;20.80;90.20;;;;;;5110478;28;20030;-63
2022/08/10 07:19:53;;;;;;;5.57;2.20;;;20.80;90.30;;;;;;5108574;28;20031;-63
2022/08/10 07:22:22;;;;;;;4.30;2.42;;;20.80;90.20;;;;;;5110488;28;20106;-63
2022/08/10 07:24:49;;;;;;;4.53;2.20;;;20.80;90.30;;;;;;5108185;28;20375;-63
2022/08/10 07:27:16;;;;;;;6.18;2.10;;;20.90;90.50;;;;;;5109736;28;20031;-63
2022/08/10 07:29:44;;;;;;;8.32;2.13;;;20.90;90.50;;;;;;5108314;28;20542;-63
2022/08/10 07:32:15;;;;;;;5.00;2.03;;;21.00;90.50;;;;;;5104836;28;20040;-63
2022/08/10 07:34:43;;;;;;;12.98;2.13;;;21.10;90.30;;;;;;5111686;28;20112;-63
2022/08/10 07:37:10;;;;;;;7.35;2.13;;;21.10;89.50;;;;;;5107768;28;20492;-63
2022/08/10 07:39:43;;;;;;;4.97;1.95;;;21.10;89.30;;;;;;5106045;28;20036;-63
2022/08/10 07:42:11;;;;;;;2.90;1.85;;;21.10;89.70;;;;;;5106009;28;20028;-63
2022/08/10 07:44:39;;;;;;;4.20;1.70;;;21.20;90.00;;;;;;5108840;28;20068;-63
2022/08/10 07:47:08;;;;;;;5.63;2.03;;;21.20;89.20;;;;;;5109354;28;20024;-66
2022/08/10 07:49:37;;;;;;;3.92;1.90;;;21.20;89.20;;;;;;5111083;28;20024;-63
2022/08/10 07:52:09;;;;;;;2.97;1.75;;;21.30;90.00;;;;;;5109192;27;20027;-63
2022/08/10 07:54:42;;;;;;;2.83;1.80;;;21.30;90.20;;;;;;5110899;28;21634;-63
2022/08/10 07:57:22;;;;;;;4.40;1.98;;;21.40;90.30;;;;;;5106415;28;20028;-66
2022/08/10 07:59:55;;;;;;;4.60;1.77;;;21.50;90.30;;;;;;5106218;28;20047;-63
2022/08/10 08:02:36;;;;;;;4.20;2.17;;;21.50;90.40;;;;;;5110288;28;20027;-63
2022/08/10 08:05:06;;;;;;;8.73;2.10;;;21.60;90.20;;;;;;5103633;28;20112;-63
2022/08/10 08:07:35;;;;;;;4.38;2.08;;;21.70;89.80;;;;;;5110387;28;20035;-63
2022/08/10 08:10:03;;;;;;;4.72;1.83;;;21.70;89.90;;;;;;5111344;28;20471;-64
2022/08/10 08:12:30;;;;;;;2.33;1.48;;;21.80;89.60;;;;;;5109580;28;20047;-63
2022/08/10 08:15:00;;;;;;;4.07;2.20;;;21.80;88.70;;;;;;5106851;28;20024;-63
2022/08/10 08:17:26;;;;;;;5.28;2.10;;;21.80;89.20;;;;;;5104244;28;20024;-63
2022/08/10 08:19:54;;;;;;;6.30;2.10;;;21.90;89.70;;;;;;5105437;28;20040;-63
2022/08/10 08:22:22;;;;;;;12.40;1.90;;;21.90;89.80;;;;;;5110117;28;20032;-63
2022/08/10 08:24:50;;;;;;;3.53;1.73;;;22.00;89.90;;;;;;5106259;28;20482;-64
2022/08/10 08:27:18;;;;;;;5.13;1.70;;;22.00;89.90;;;;;;5109849;28;20486;-64
2022/08/10 08:29:47;;;;;;;5.50;1.63;;;22.10;89.80;;;;;;5104431;28;20095;-64
2022/08/10 08:32:16;;;;;;;3.08;1.95;;;22.20;89.70;;;;;;5107255;28;20048;-64
2022/08/10 08:34:43;;;;;;;6.43;1.92;;;22.20;89.60;;;;;;5103233;28;20036;-64
2022/08/10 08:37:13;;;;;;;5.00;1.70;;;22.40;88.90;;;;;;5106993;28;20039;-64
2022/08/10 08:39:40;;;;;;;2.72;1.45;;;22.40;88.70;;;;;;5106537;28;20054;-63
2022/08/10 08:42:27;;;;;;;7.18;2.33;;;22.40;87.90;;;;;;5105696;28;20028;-63
2022/08/10 08:45:14;;;;;;;5.70;1.80;;;22.40;87.80;;;;;;5110041;28;20745;-64
2022/08/10 08:48:07;;;;;;;2.95;1.67;;;22.40;88.00;;;;;;5107259;28;20039;-63
2022/08/10 08:50:50;;;;;;;4.05;1.88;;;22.50;88.30;;;;;;5108155;28;20103;-64
2022/08/10 08:53:53;;;;;;;3.35;1.75;;;22.50;88.20;;;;;;5105994;28;20378;-64
2022/08/10 08:56:57;;;;;;;6.87;1.80;;;22.60;88.10;;;;;;5107111;28;20035;-64
2022/08/10 08:59:50;;;;;;;4.53;1.70;;;22.70;88.10;;;;;;5106953;28;20053;-64
2022/08/10 09:02:18;;;;;;;3.15;1.52;;;22.80;87.70;;;;;;5108862;28;20027;-64
2022/08/10 09:05:07;;;;;;;1.80;1.60;;;22.90;87.40;;;;;;5106005;28;20429;-64
2022/08/10 09:08:08;;;;;;;8.05;3.40;;;23.00;87.40;;;;;;5108886;28;20027;-64
2022/08/10 09:10:52;;;;;;;4.47;1.60;;;23.00;87.10;;;;;;5103535;28;20035;-64
2022/08/10 09:13:42;;;;;;;4.65;1.45;;;23.10;86.70;;;;;;5104463;28;20114;-63
2022/08/10 09:16:17;;;;;;;5.38;1.33;;;23.10;86.70;;;;;;5105705;28;20603;-64
2022/08/10 09:19:14;;;;;;;3.00;1.80;;;23.20;86.80;;;;;;5110833;28;20054;-64
2022/08/10 09:21:53;;;;;;;4.80;1.55;;;23.20;86.50;;;;;;5109230;28;20039;-64
2022/08/10 09:24:53;;;;;;;4.68;1.65;;;23.30;85.70;;;;;;5108280;28;20031;-64
2022/08/10 09:27:32;;;;;;;2.90;1.70;;;23.30;85.50;;;;;;5081888;28;20028;-64
2022/08/10 09:30:05;;;;;;;4.85;1.55;;;23.40;85.90;;;;;;5109314;28;20036;-64
2022/08/10 09:32:52;;;;;;;2.65;1.50;;;23.40;85.80;;;;;;5108633;28;20048;-64
2022/08/10 09:35:44;;;;;;;3.92;1.77;;;23.40;85.50;;;;;;5106036;28;20035;-64
2022/08/10 09:38:15;;;;;;;5.85;2.00;;;23.50;84.90;;;;;;5107572;28;20034;-64
2022/08/10 09:41:02;;;;;;;3.60;1.52;;;23.50;84.80;;;;;;5109269;28;20371;-63
2022/08/10 09:43:46;;;;;;;10.02;1.73;;;23.50;84.90;;;;;;5106226;28;20034;-63
2022/08/10 09:46:21;;;;;;;3.25;1.42;;;23.60;84.70;;;;;;5103909;28;20028;-63
2022/08/10 09:49:10;;;;;;;4.25;1.70;;;23.60;84.10;;;;;;5107356;28;20118;-63
2022/08/10 09:51:52;;;;;;;4.60;1.30;;;23.70;84.40;;;;;;5106961;28;20543;-63
2022/08/10 09:54:41;;;;;;;3.10;1.58;;;23.80;84.20;;;;;;5106940;28;20035;-63
2022/08/10 09:57:45;;;;;;;10.52;1.30;;;23.80;83.80;;;;;;5111075;28;20394;-63
2022/08/10 10:00:15;;;;;;;4.03;1.73;;;23.90;84.10;;;;;;5059079;28;20036;-63
2022/08/10 10:03:25;;;;;;;4.25;1.60;;;23.90;83.60;;;;;;5105215;28;20145;-63
2022/08/10 10:06:04;;;;;;;10.52;2.05;;;23.90;83.50;;;;;;5099731;28;20031;-63
2022/08/10 10:08:55;;;;;;;2.67;1.38;;;24.00;83.10;;;;;;5105595;28;20038;-63
2022/08/10 10:11:34;;;;;;;8.32;1.75;;;24.00;82.70;;;;;;5106499;28;20031;-63
2022/08/10 10:14:24;;;;;;;6.47;1.83;;;24.00;82.30;;;;;;5106720;28;20444;-63
2022/08/10 10:16:49;;;;;;;2.70;1.70;;;24.10;82.30;;;;;;5108004;28;20023;-62
2022/08/10 10:19:33;;;;;;;3.30;1.77;;;24.20;83.20;;;;;;5108088;28;20039;-62
2022/08/10 10:22:11;;;;;;;8.88;2.53;;;24.20;82.30;;;;;;5106705;28;20042;-62
2022/08/10 10:24:44;;;;;;;3.33;1.63;;;24.20;82.10;;;;;;5106818;28;20098;-62
2022/08/10 10:27:28;;;;;;;3.72;1.50;;;24.30;82.00;;;;;;5109920;28;20027;-62
2022/08/10 10:30:04;;;;;;;4.95;1.70;;;24.40;82.00;;;;;;5092570;28;20074;-62
2022/08/10 10:32:33;;;;;;;3.20;1.40;;;24.40;81.00;;;;;;5101385;28;20055;-62
2022/08/10 10:35:08;;;;;;;4.97;1.50;;;24.40;81.20;;;;;;5092949;28;20475;-62
2022/08/10 10:37:36;;;;;;;3.33;1.60;;;24.60;81.60;;;;;;5096555;28;20036;-62
2022/08/10 10:40:06;;;;;;;2.67;1.30;;;24.60;80.70;;;;;;5097788;28;20430;-62
2022/08/10 10:42:53;;;;;;;1.60;1.30;;;24.70;80.10;;;;;;5104383;28;20476;-65
2022/08/10 10:45:51;;;;;;;6.07;1.30;;;24.70;79.80;;;;;;5102169;28;20562;-62
2022/08/10 10:48:24;;;;;;;4.00;1.50;;;24.80;80.10;;;;;;5113506;28;20089;-62
2022/08/10 10:50:54;;;;;;;2.55;1.48;;;24.80;80.10;;;;;;5110124;28;20027;-62
2022/08/10 10:53:27;;;;;;;5.07;1.83;;;24.80;79.80;;;;;;5111518;28;20485;-62
2022/08/10 10:56:06;;;;;;;3.10;1.55;;;24.90;80.10;;;;;;5109338;28;20505;-62
2022/08/10 10:58:58;;;;;;;4.85;1.45;;;24.90;79.20;;;;;;5108212;28;20028;-62
2022/08/10 11:01:43;;;;;;;2.00;1.00;;;24.90;78.70;;;;;;5109758;28;20042;-62
2022/08/10 11:04:50;;;;;;;5.85;1.20;;;25.00;80.20;;;;;;5108940;28;20031;-62
2022/08/10 11:07:59;;;;;;;2.80;1.50;;;25.00;79.80;;;;;;5109285;28;21689;-62
2022/08/10 11:10:33;;;;;;;3.45;1.50;;;25.00;78.90;;;;;;5096683;28;20042;-62
2022/08/10 11:13:18;;;;;;;1.23;1.13;;;25.10;78.50;;;;;;5107115;28;20036;-62
2022/08/10 11:16:07;;;;;;;6.82;1.55;;;25.10;78.00;;;;;;5104830;28;20020;-62
2022/08/10 11:18:47;;;;;;;3.58;1.10;;;25.20;78.70;;;;;;5095775;28;20809;-62
2022/08/10 11:21:31;;;;;;;6.20;1.35;;;25.10;78.20;;;;;;5108236;28;20076;-62
2022/08/10 11:24:06;;;;;;;2.40;1.42;;;25.20;78.10;;;;;;5110239;28;20031;-63
2022/08/10 11:26:46;;;;;;;2.58;1.10;;;25.20;77.40;;;;;;5109156;28;20039;-62
2022/08/10 11:29:30;;;;;;;3.30;1.63;;;25.30;77.30;;;;;;5108239;28;20153;-62
2022/08/10 11:32:05;;;;;;;6.20;1.40;;;25.40;77.80;;;;;;5104845;28;20036;-62
2022/08/10 11:34:51;;;;;;;3.40;1.38;;;25.40;77.00;;;;;;5107491;28;20019;-62
2022/08/10 11:37:44;;;;;;;11.75;1.58;;;25.40;77.30;;;;;;5107597;28;20110;-62
2022/08/10 11:40:19;;;;;;;5.38;1.40;;;25.50;76.90;;;;;;5106368;28;20047;-62
2022/08/10 11:42:55;;;;;;;5.05;1.88;;;25.50;77.10;;;;;;5106806;28;20035;-62
2022/08/10 11:45:35;;;;;;;2.88;1.45;;;25.60;77.20;;;;;;5108928;28;20038;-62
2022/08/10 11:48:05;;;;;;;8.20;1.35;;;25.60;77.50;;;;;;5108990;28;20035;-62
2022/08/10 11:50:42;;;;;;;4.05;1.13;;;25.60;77.50;;;;;;5110680;28;20084;-62
2022/08/10 11:53:36;;;;;;;2.08;1.23;;;25.70;76.60;;;;;;5113098;28;20490;-62
2022/08/10 11:56:05;;;;;;;6.55;1.80;;;25.80;77.00;;;;;;5095878;28;20016;-62
2022/08/10 12:01:26;;;;;;;2.70;1.58;;;25.80;75.90;;;;;;5093836;28;20399;-62
2022/08/10 12:03:53;;;;;;;2.13;1.40;;;25.80;76.10;;;;;;5099792;28;20063;-63
2022/08/10 12:06:21;;;;;;;1.67;1.27;;;25.80;76.60;;;;;;5093374;28;20044;-62
2022/08/10 12:08:49;;;;;;;5.30;1.33;;;25.90;76.50;;;;;;5092417;28;20099;-62
2022/08/10 12:11:21;;;;;;;1.58;1.23;;;26.00;77.40;;;;;;5106889;28;20028;-62
2022/08/10 12:14:10;;;;;;;2.03;1.38;;;26.00;76.80;;;;;;5103981;28;20073;-62
2022/08/10 12:16:43;;;;;;;13.23;1.73;;;26.00;77.50;;;;;;5063882;28;20040;-62
2022/08/10 12:19:34;;;;;;;8.80;1.98;;;26.00;77.30;;;;;;5100290;28;20047;-62
2022/08/10 12:22:06;;;;;;;3.92;1.58;;;26.00;76.90;;;;;;5106787;28;20424;-62
2022/08/10 12:24:45;;;;;;;3.00;1.60;;;26.00;76.70;;;;;;5109604;28;20386;-62
2022/08/10 12:27:25;;;;;;;10.05;1.60;;;26.00;77.10;;;;;;5105179;28;20020;-64
2022/08/10 12:29:57;;;;;;;10.60;1.60;;;26.00;77.30;;;;;;5104843;28;20039;-63
2022/08/10 12:32:41;;;;;;;3.13;1.40;;;26.00;77.50;;;;;;5069222;28;1080013;-64
2022/08/10 12:35:24;;;;;;;6.78;1.92;;;26.10;77.40;;;;;;5095415;28;20089;-62
2022/08/10 12:38:07;;;;;;;3.53;1.80;;;26.10;77.60;;;;;;5110327;28;20073;-62
2022/08/10 12:40:42;;;;;;;6.95;1.63;;;26.10;77.70;;;;;;5111711;28;20116;-69
2022/08/10 12:43:18;;;;;;;4.32;1.75;;;26.10;77.00;;;;;;5112954;28;20031;-62
2022/08/10 12:45:52;;;;;;;7.32;1.70;;;26.20;77.40;;;;;;5094006;28;20497;-62
2022/08/10 12:48:34;;;;;;;11.95;1.80;;;26.20;77.20;;;;;;5108528;28;20031;-62
2022/08/10 12:51:16;;;;;;;6.25;1.48;;;26.20;77.10;;;;;;5110759;28;20028;-62
2022/08/10 12:54:13;;;;;;;5.07;1.40;;;26.30;77.60;;;;;;5107520;28;20031;-62
2022/08/10 12:56:45;;;;;;;5.20;1.50;;;26.40;78.60;;;;;;5092103;28;20045;-62
2022/08/10 12:59:13;;;;;;;4.60;1.75;;;26.40;77.90;;;;;;5105006;28;20483;-62
2022/08/10 13:01:42;;;;;;;6.10;1.30;;;26.40;77.90;;;;;;5103386;28;20089;-63
2022/08/10 13:04:11;;;;;;;4.78;1.77;;;26.50;78.40;;;;;;5108581;28;20032;-62
2022/08/10 13:06:45;;;;;;;5.45;1.88;;;26.50;78.50;;;;;;5108269;28;20031;-63
2022/08/10 13:09:15;;;;;;;8.00;2.20;;;26.40;78.00;;;;;;5099031;28;20028;-62
2022/08/10 13:11:53;;;;;;;5.05;1.60;;;26.40;78.00;;;;;;5105977;28;20467;-63
2022/08/10 13:14:44;;;;;;;2.88;1.67;;;26.40;78.30;;;;;;5108900;28;20043;-62
2022/08/10 13:17:11;;;;;;;7.20;2.17;;;26.50;78.30;;;;;;5084369;28;20628;-63
2022/08/10 13:19:42;;;;;;;3.95;1.60;;;26.50;77.80;;;;;;5106220;28;20023;-62
2022/08/10 13:22:09;;;;;;;7.32;2.13;;;26.50;77.30;;;;;;5109539;28;20032;-62
2022/08/10 13:24:39;;;;;;;5.88;2.05;;;26.60;77.80;;;;;;5111152;28;20490;-63